sensor_id;sensor_type;location;lat;lon;timestamp;P1;durP1;ratioP1;P2;durP2;ratioP2
3379;SDS011;1703;51.964;7.642;2022-10-16T00:02:24;5.17;;;4.50;;
3379;SDS011;1703;51.964;7.642;2022-10-16T00:04:51;8.00;;;5.67;;
3379;SDS011;1703;51.964;7.642;2022-10-16T00:07:19;9.87;;;5.90;;
3379;SDS011;1703;51.964;7.642;2022-10-16T00:09:48;7.97;;;6.00;;
3379;SDS011;1703;51.964;7.642;2022-10-16T00:12:14;8.90;;;4.83;;
3379;SDS011;1703;51.964;7.642;2022-10-16T00:14:41;10.40;;;5.80;;
3379;SDS011;1703;51.964;7.642;2022-10-16T00:17:09;6.00;;;5.00;;
3379;SDS011;1703;51.964;7.642;2022-10-16T00:19:35;5.50;;;4.57;;
3379;SDS011;1703;51.964;7.642;2022-10-16T00:22:02;7.97;;;5.37;;
3379;SDS011;1703;51.964;7.642;2022-10-16T00:24:29;7.27;;;5.57;;
3379;SDS011;1703;51.964;7.642;2022-10-16T00:26:57;8.93;;;6.23;;
3379;SDS011;1703;51.964;7.642;2022-10-16T00:29:24;8.40;;;5.53;;
3379;SDS011;1703;51.964;7.642;2022-10-16T00:31:51;6.47;;;4.80;;
3379;SDS011;1703;51.964;7.642;2022-10-16T00:34:17;12.90;;;5.47;;
3379;SDS011;1703;51.964;7.642;2022-10-16T00:36:44;11.83;;;6.47;;
3379;SDS011;1703;51.964;7.642;2022-10-16T00:39:11;10.47;;;5.73;;
3379;SDS011;1703;51.964;7.642;2022-10-16T00:41:38;7.53;;;5.07;;
3379;SDS011;1703;51.964;7.642;2022-10-16T00:47:07;10.60;;;5.13;;
3379;SDS011;1703;51.964;7.642;2022-10-16T00:49:35;7.47;;;5.67;;
3379;SDS011;1703;51.964;7.642;2022-10-16T00:52:02;6.13;;;5.53;;
3379;SDS011;1703;51.964;7.642;2022-10-16T00:54:30;8.90;;;6.17;;
3379;SDS011;1703;51.964;7.642;2022-10-16T00:56:58;14.53;;;6.47;;
3379;SDS011;1703;51.964;7.642;2022-10-16T00:59:29;8.20;;;5.73;;
3379;SDS011;1703;51.964;7.642;2022-10-16T01:01:58;7.13;;;6.07;;
3379;SDS011;1703;51.964;7.642;2022-10-16T01:04:27;7.50;;;6.27;;
3379;SDS011;1703;51.964;7.642;2022-10-16T01:06:59;9.43;;;5.87;;
3379;SDS011;1703;51.964;7.642;2022-10-16T01:09:36;10.43;;;6.20;;
3379;SDS011;1703;51.964;7.642;2022-10-16T01:12:12;7.60;;;6.40;;
3379;SDS011;1703;51.964;7.642;2022-10-16T01:14:47;6.90;;;5.43;;
3379;SDS011;1703;51.964;7.642;2022-10-16T01:17:19;9.07;;;5.73;;
3379;SDS011;1703;51.964;7.642;2022-10-16T01:20:03;5.97;;;4.77;;
3379;SDS011;1703;51.964;7.642;2022-10-16T01:22:39;13.30;;;4.97;;
3379;SDS011;1703;51.964;7.642;2022-10-16T01:25:16;4.60;;;3.77;;
3379;SDS011;1703;51.964;7.642;2022-10-16T01:27:50;7.00;;;4.37;;
3379;SDS011;1703;51.964;7.642;2022-10-16T01:30:20;6.23;;;5.23;;
3379;SDS011;1703;51.964;7.642;2022-10-16T01:32:50;4.93;;;4.40;;
3379;SDS011;1703;51.964;7.642;2022-10-16T01:35:22;8.53;;;5.30;;
3379;SDS011;1703;51.964;7.642;2022-10-16T01:37:53;7.50;;;4.70;;
3379;SDS011;1703;51.964;7.642;2022-10-16T01:40:26;7.60;;;5.33;;
3379;SDS011;1703;51.964;7.642;2022-10-16T01:42:56;4.67;;;4.20;;
3379;SDS011;1703;51.964;7.642;2022-10-16T01:45:27;13.03;;;5.97;;
3379;SDS011;1703;51.964;7.642;2022-10-16T01:47:56;5.83;;;4.83;;
3379;SDS011;1703;51.964;7.642;2022-10-16T01:50:29;6.70;;;4.47;;
3379;SDS011;1703;51.964;7.642;2022-10-16T01:52:58;12.00;;;5.13;;
3379;SDS011;1703;51.964;7.642;2022-10-16T01:55:29;10.37;;;5.70;;
3379;SDS011;1703;51.964;7.642;2022-10-16T01:58:02;8.43;;;4.70;;
3379;SDS011;1703;51.964;7.642;2022-10-16T02:00:33;14.73;;;4.97;;
3379;SDS011;1703;51.964;7.642;2022-10-16T02:03:02;7.70;;;5.57;;
3379;SDS011;1703;51.964;7.642;2022-10-16T02:05:31;6.07;;;4.20;;
3379;SDS011;1703;51.964;7.642;2022-10-16T02:08:00;5.37;;;4.47;;
3379;SDS011;1703;51.964;7.642;2022-10-16T02:10:28;7.83;;;5.33;;
3379;SDS011;1703;51.964;7.642;2022-10-16T02:12:57;7.20;;;4.10;;
3379;SDS011;1703;51.964;7.642;2022-10-16T02:15:28;9.10;;;4.23;;
3379;SDS011;1703;51.964;7.642;2022-10-16T02:17:55;12.30;;;4.30;;
3379;SDS011;1703;51.964;7.642;2022-10-16T02:20:22;6.67;;;4.70;;
3379;SDS011;1703;51.964;7.642;2022-10-16T02:22:53;5.90;;;3.73;;
3379;SDS011;1703;51.964;7.642;2022-10-16T02:25:24;7.87;;;4.10;;
3379;SDS011;1703;51.964;7.642;2022-10-16T02:27:57;6.10;;;4.30;;
3379;SDS011;1703;51.964;7.642;2022-10-16T02:30:32;4.03;;;3.70;;
3379;SDS011;1703;51.964;7.642;2022-10-16T02:33:02;6.90;;;5.00;;
3379;SDS011;1703;51.964;7.642;2022-10-16T02:35:32;6.57;;;4.20;;
3379;SDS011;1703;51.964;7.642;2022-10-16T02:38:00;8.87;;;5.70;;
3379;SDS011;1703;51.964;7.642;2022-10-16T02:40:27;6.90;;;5.00;;
3379;SDS011;1703;51.964;7.642;2022-10-16T02:42:55;8.57;;;4.70;;
3379;SDS011;1703;51.964;7.642;2022-10-16T02:45:22;6.93;;;5.00;;
3379;SDS011;1703;51.964;7.642;2022-10-16T02:47:51;6.63;;;4.80;;
3379;SDS011;1703;51.964;7.642;2022-10-16T02:50:18;10.67;;;5.50;;
3379;SDS011;1703;51.964;7.642;2022-10-16T02:52:44;6.83;;;4.80;;
3379;SDS011;1703;51.964;7.642;2022-10-16T02:55:11;8.13;;;4.10;;
3379;SDS011;1703;51.964;7.642;2022-10-16T02:57:38;6.13;;;4.93;;
3379;SDS011;1703;51.964;7.642;2022-10-16T03:00:06;6.93;;;4.27;;
3379;SDS011;1703;51.964;7.642;2022-10-16T03:02:33;8.40;;;4.60;;
3379;SDS011;1703;51.964;7.642;2022-10-16T03:05:02;8.30;;;5.13;;
3379;SDS011;1703;51.964;7.642;2022-10-16T03:07:29;5.80;;;4.17;;
3379;SDS011;1703;51.964;7.642;2022-10-16T03:09:56;6.20;;;4.33;;
3379;SDS011;1703;51.964;7.642;2022-10-16T03:12:25;6.20;;;3.80;;
3379;SDS011;1703;51.964;7.642;2022-10-16T03:14:52;10.30;;;4.47;;
3379;SDS011;1703;51.964;7.642;2022-10-16T03:17:19;5.73;;;3.93;;
3379;SDS011;1703;51.964;7.642;2022-10-16T03:19:46;10.10;;;4.10;;
3379;SDS011;1703;51.964;7.642;2022-10-16T03:22:14;3.53;;;3.33;;
3379;SDS011;1703;51.964;7.642;2022-10-16T03:24:40;6.50;;;3.07;;
3379;SDS011;1703;51.964;7.642;2022-10-16T03:27:07;4.80;;;4.07;;
3379;SDS011;1703;51.964;7.642;2022-10-16T03:29:34;5.43;;;4.47;;
3379;SDS011;1703;51.964;7.642;2022-10-16T03:32:01;4.70;;;3.77;;
3379;SDS011;1703;51.964;7.642;2022-10-16T03:34:28;3.97;;;3.63;;
3379;SDS011;1703;51.964;7.642;2022-10-16T03:36:55;8.20;;;4.20;;
3379;SDS011;1703;51.964;7.642;2022-10-16T03:39:23;4.60;;;3.90;;
3379;SDS011;1703;51.964;7.642;2022-10-16T03:41:50;5.03;;;4.00;;
3379;SDS011;1703;51.964;7.642;2022-10-16T03:44:17;5.50;;;3.73;;
3379;SDS011;1703;51.964;7.642;2022-10-16T03:46:43;3.63;;;3.33;;
3379;SDS011;1703;51.964;7.642;2022-10-16T03:49:10;5.70;;;5.20;;
3379;SDS011;1703;51.964;7.642;2022-10-16T03:51:37;7.00;;;3.83;;
3379;SDS011;1703;51.964;7.642;2022-10-16T03:54:04;12.63;;;3.77;;
3379;SDS011;1703;51.964;7.642;2022-10-16T03:56:32;5.43;;;3.30;;
3379;SDS011;1703;51.964;7.642;2022-10-16T03:58:59;5.70;;;4.17;;
3379;SDS011;1703;51.964;7.642;2022-10-16T04:01:25;5.73;;;3.70;;
3379;SDS011;1703;51.964;7.642;2022-10-16T04:03:52;3.50;;;3.17;;
3379;SDS011;1703;51.964;7.642;2022-10-16T04:06:19;4.13;;;3.40;;
3379;SDS011;1703;51.964;7.642;2022-10-16T04:08:46;10.57;;;4.13;;
3379;SDS011;1703;51.964;7.642;2022-10-16T04:11:12;6.10;;;3.60;;
3379;SDS011;1703;51.964;7.642;2022-10-16T04:13:40;6.10;;;4.97;;
3379;SDS011;1703;51.964;7.642;2022-10-16T04:16:07;9.53;;;3.77;;
3379;SDS011;1703;51.964;7.642;2022-10-16T04:18:34;3.90;;;3.27;;
3379;SDS011;1703;51.964;7.642;2022-10-16T04:21:04;4.70;;;3.43;;
3379;SDS011;1703;51.964;7.642;2022-10-16T04:23:31;4.93;;;4.20;;
3379;SDS011;1703;51.964;7.642;2022-10-16T04:25:59;3.63;;;3.33;;
3379;SDS011;1703;51.964;7.642;2022-10-16T04:28:26;4.70;;;3.73;;
3379;SDS011;1703;51.964;7.642;2022-10-16T04:30:55;5.60;;;4.20;;
3379;SDS011;1703;51.964;7.642;2022-10-16T04:33:21;4.10;;;3.50;;
3379;SDS011;1703;51.964;7.642;2022-10-16T04:35:48;5.60;;;4.40;;
3379;SDS011;1703;51.964;7.642;2022-10-16T04:38:21;5.27;;;4.43;;
3379;SDS011;1703;51.964;7.642;2022-10-16T04:40:48;9.57;;;4.20;;
3379;SDS011;1703;51.964;7.642;2022-10-16T04:43:15;7.20;;;4.00;;
3379;SDS011;1703;51.964;7.642;2022-10-16T04:45:42;7.07;;;3.70;;
3379;SDS011;1703;51.964;7.642;2022-10-16T04:48:10;4.50;;;4.13;;
3379;SDS011;1703;51.964;7.642;2022-10-16T04:50:37;6.03;;;4.00;;
3379;SDS011;1703;51.964;7.642;2022-10-16T04:53:04;7.77;;;4.00;;
3379;SDS011;1703;51.964;7.642;2022-10-16T04:55:31;5.57;;;3.00;;
3379;SDS011;1703;51.964;7.642;2022-10-16T04:57:58;8.07;;;3.30;;
3379;SDS011;1703;51.964;7.642;2022-10-16T05:00:24;6.50;;;3.30;;
3379;SDS011;1703;51.964;7.642;2022-10-16T05:02:51;7.73;;;3.00;;
3379;SDS011;1703;51.964;7.642;2022-10-16T05:05:19;3.60;;;3.23;;
3379;SDS011;1703;51.964;7.642;2022-10-16T05:07:46;3.40;;;3.10;;
3379;SDS011;1703;51.964;7.642;2022-10-16T05:10:14;7.30;;;3.40;;
3379;SDS011;1703;51.964;7.642;2022-10-16T05:12:42;4.07;;;2.97;;
3379;SDS011;1703;51.964;7.642;2022-10-16T05:15:09;2.63;;;2.43;;
3379;SDS011;1703;51.964;7.642;2022-10-16T05:17:37;3.20;;;2.90;;
3379;SDS011;1703;51.964;7.642;2022-10-16T05:20:04;4.00;;;2.63;;
3379;SDS011;1703;51.964;7.642;2022-10-16T05:22:33;5.93;;;2.73;;
3379;SDS011;1703;51.964;7.642;2022-10-16T05:24:59;8.80;;;3.23;;
3379;SDS011;1703;51.964;7.642;2022-10-16T05:27:26;4.47;;;2.50;;
3379;SDS011;1703;51.964;7.642;2022-10-16T05:29:53;3.47;;;3.17;;
3379;SDS011;1703;51.964;7.642;2022-10-16T05:32:20;4.10;;;2.53;;
3379;SDS011;1703;51.964;7.642;2022-10-16T05:34:47;3.53;;;2.30;;
3379;SDS011;1703;51.964;7.642;2022-10-16T05:37:14;2.20;;;2.03;;
3379;SDS011;1703;51.964;7.642;2022-10-16T05:39:42;3.73;;;3.43;;
3379;SDS011;1703;51.964;7.642;2022-10-16T05:42:08;3.00;;;2.10;;
3379;SDS011;1703;51.964;7.642;2022-10-16T05:44:35;3.00;;;2.47;;
3379;SDS011;1703;51.964;7.642;2022-10-16T05:47:02;3.50;;;2.67;;
3379;SDS011;1703;51.964;7.642;2022-10-16T05:49:29;4.93;;;2.50;;
3379;SDS011;1703;51.964;7.642;2022-10-16T05:51:55;4.17;;;3.20;;
3379;SDS011;1703;51.964;7.642;2022-10-16T05:54:22;4.20;;;3.27;;
3379;SDS011;1703;51.964;7.642;2022-10-16T05:56:50;7.70;;;2.57;;
3379;SDS011;1703;51.964;7.642;2022-10-16T05:59:17;6.47;;;2.77;;
3379;SDS011;1703;51.964;7.642;2022-10-16T06:01:44;3.50;;;2.30;;
3379;SDS011;1703;51.964;7.642;2022-10-16T06:04:10;5.10;;;2.83;;
3379;SDS011;1703;51.964;7.642;2022-10-16T06:06:37;5.47;;;2.80;;
3379;SDS011;1703;51.964;7.642;2022-10-16T06:09:04;2.27;;;2.03;;
3379;SDS011;1703;51.964;7.642;2022-10-16T06:11:32;3.50;;;2.30;;
3379;SDS011;1703;51.964;7.642;2022-10-16T06:14:01;1.90;;;1.80;;
3379;SDS011;1703;51.964;7.642;2022-10-16T06:16:31;3.00;;;2.57;;
3379;SDS011;1703;51.964;7.642;2022-10-16T06:18:59;2.53;;;2.30;;
3379;SDS011;1703;51.964;7.642;2022-10-16T06:21:26;2.53;;;2.33;;
3379;SDS011;1703;51.964;7.642;2022-10-16T06:23:55;3.67;;;2.17;;
3379;SDS011;1703;51.964;7.642;2022-10-16T06:26:23;2.13;;;1.93;;
3379;SDS011;1703;51.964;7.642;2022-10-16T06:28:53;3.27;;;2.50;;
3379;SDS011;1703;51.964;7.642;2022-10-16T06:31:21;2.23;;;1.60;;
3379;SDS011;1703;51.964;7.642;2022-10-16T06:33:52;2.03;;;1.80;;
3379;SDS011;1703;51.964;7.642;2022-10-16T06:36:20;2.07;;;1.60;;
3379;SDS011;1703;51.964;7.642;2022-10-16T06:38:47;5.27;;;2.40;;
3379;SDS011;1703;51.964;7.642;2022-10-16T06:41:15;6.93;;;1.97;;
3379;SDS011;1703;51.964;7.642;2022-10-16T06:43:42;2.10;;;1.90;;
3379;SDS011;1703;51.964;7.642;2022-10-16T06:46:11;4.83;;;2.30;;
3379;SDS011;1703;51.964;7.642;2022-10-16T06:48:40;2.10;;;1.60;;
3379;SDS011;1703;51.964;7.642;2022-10-16T06:51:08;2.20;;;2.03;;
3379;SDS011;1703;51.964;7.642;2022-10-16T06:53:38;3.43;;;1.87;;
3379;SDS011;1703;51.964;7.642;2022-10-16T06:56:07;7.50;;;1.87;;
3379;SDS011;1703;51.964;7.642;2022-10-16T06:58:34;3.30;;;1.70;;
3379;SDS011;1703;51.964;7.642;2022-10-16T07:01:01;3.57;;;1.60;;
3379;SDS011;1703;51.964;7.642;2022-10-16T07:03:28;2.40;;;2.20;;
3379;SDS011;1703;51.964;7.642;2022-10-16T07:05:56;3.83;;;2.67;;
3379;SDS011;1703;51.964;7.642;2022-10-16T07:08:27;3.60;;;1.70;;
3379;SDS011;1703;51.964;7.642;2022-10-16T07:10:57;3.17;;;2.10;;
3379;SDS011;1703;51.964;7.642;2022-10-16T07:13:25;3.17;;;1.93;;
3379;SDS011;1703;51.964;7.642;2022-10-16T07:15:52;3.63;;;2.07;;
3379;SDS011;1703;51.964;7.642;2022-10-16T07:18:19;4.13;;;2.00;;
3379;SDS011;1703;51.964;7.642;2022-10-16T07:20:46;1.80;;;1.70;;
3379;SDS011;1703;51.964;7.642;2022-10-16T07:23:14;4.63;;;2.03;;
3379;SDS011;1703;51.964;7.642;2022-10-16T07:25:41;3.77;;;2.17;;
3379;SDS011;1703;51.964;7.642;2022-10-16T07:28:08;4.00;;;1.57;;
3379;SDS011;1703;51.964;7.642;2022-10-16T07:30:35;4.93;;;1.60;;
3379;SDS011;1703;51.964;7.642;2022-10-16T07:33:03;2.57;;;2.10;;
3379;SDS011;1703;51.964;7.642;2022-10-16T07:35:29;2.20;;;1.53;;
3379;SDS011;1703;51.964;7.642;2022-10-16T07:37:56;5.30;;;2.53;;
3379;SDS011;1703;51.964;7.642;2022-10-16T07:40:24;3.90;;;2.40;;
3379;SDS011;1703;51.964;7.642;2022-10-16T07:42:52;2.20;;;2.10;;
3379;SDS011;1703;51.964;7.642;2022-10-16T07:45:19;2.77;;;2.13;;
3379;SDS011;1703;51.964;7.642;2022-10-16T07:47:46;2.50;;;2.30;;
3379;SDS011;1703;51.964;7.642;2022-10-16T07:50:13;3.30;;;2.20;;
3379;SDS011;1703;51.964;7.642;2022-10-16T07:52:40;19.10;;;2.50;;
3379;SDS011;1703;51.964;7.642;2022-10-16T07:55:07;2.47;;;1.73;;
3379;SDS011;1703;51.964;7.642;2022-10-16T07:57:35;2.03;;;1.93;;
3379;SDS011;1703;51.964;7.642;2022-10-16T08:00:03;2.10;;;1.60;;
3379;SDS011;1703;51.964;7.642;2022-10-16T08:02:37;2.10;;;1.90;;
3379;SDS011;1703;51.964;7.642;2022-10-16T08:05:05;2.77;;;2.10;;
3379;SDS011;1703;51.964;7.642;2022-10-16T08:07:32;2.30;;;2.10;;
3379;SDS011;1703;51.964;7.642;2022-10-16T08:09:59;8.20;;;1.97;;
3379;SDS011;1703;51.964;7.642;2022-10-16T08:12:26;2.73;;;2.00;;
3379;SDS011;1703;51.964;7.642;2022-10-16T08:14:54;3.90;;;2.60;;
3379;SDS011;1703;51.964;7.642;2022-10-16T08:17:21;2.37;;;2.17;;
3379;SDS011;1703;51.964;7.642;2022-10-16T08:19:47;2.37;;;1.97;;
3379;SDS011;1703;51.964;7.642;2022-10-16T08:22:14;4.97;;;2.40;;
3379;SDS011;1703;51.964;7.642;2022-10-16T08:24:41;3.23;;;2.27;;
3379;SDS011;1703;51.964;7.642;2022-10-16T08:27:08;3.83;;;1.80;;
3379;SDS011;1703;51.964;7.642;2022-10-16T08:29:35;4.83;;;2.40;;
3379;SDS011;1703;51.964;7.642;2022-10-16T08:32:04;3.63;;;2.93;;
3379;SDS011;1703;51.964;7.642;2022-10-16T08:34:31;3.70;;;1.77;;
3379;SDS011;1703;51.964;7.642;2022-10-16T08:36:58;1.60;;;1.50;;
3379;SDS011;1703;51.964;7.642;2022-10-16T08:39:25;2.50;;;1.80;;
3379;SDS011;1703;51.964;7.642;2022-10-16T08:42:02;1.90;;;1.80;;
3379;SDS011;1703;51.964;7.642;2022-10-16T08:44:52;3.40;;;1.80;;
3379;SDS011;1703;51.964;7.642;2022-10-16T08:47:39;3.80;;;2.40;;
3379;SDS011;1703;51.964;7.642;2022-10-16T08:50:17;4.23;;;1.80;;
3379;SDS011;1703;51.964;7.642;2022-10-16T08:52:48;3.90;;;1.80;;
3379;SDS011;1703;51.964;7.642;2022-10-16T08:55:17;1.63;;;1.53;;
3379;SDS011;1703;51.964;7.642;2022-10-16T08:57:54;4.03;;;1.63;;
3379;SDS011;1703;51.964;7.642;2022-10-16T09:00:21;4.97;;;2.17;;
3379;SDS011;1703;51.964;7.642;2022-10-16T09:02:51;4.83;;;2.33;;
3379;SDS011;1703;51.964;7.642;2022-10-16T09:05:26;2.73;;;2.27;;
3379;SDS011;1703;51.964;7.642;2022-10-16T09:08:20;4.30;;;1.70;;
3379;SDS011;1703;51.964;7.642;2022-10-16T09:10:56;3.47;;;2.30;;
3379;SDS011;1703;51.964;7.642;2022-10-16T09:13:28;2.70;;;1.70;;
3379;SDS011;1703;51.964;7.642;2022-10-16T09:16:01;4.40;;;1.67;;
3379;SDS011;1703;51.964;7.642;2022-10-16T09:18:43;1.67;;;1.10;;
3379;SDS011;1703;51.964;7.642;2022-10-16T09:21:19;5.50;;;1.63;;
3379;SDS011;1703;51.964;7.642;2022-10-16T09:23:49;3.13;;;1.57;;
3379;SDS011;1703;51.964;7.642;2022-10-16T09:26:17;10.60;;;1.70;;
3379;SDS011;1703;51.964;7.642;2022-10-16T09:28:47;4.83;;;1.80;;
3379;SDS011;1703;51.964;7.642;2022-10-16T09:31:15;2.40;;;1.13;;
3379;SDS011;1703;51.964;7.642;2022-10-16T09:33:48;5.67;;;1.60;;
3379;SDS011;1703;51.964;7.642;2022-10-16T09:36:18;7.27;;;1.80;;
3379;SDS011;1703;51.964;7.642;2022-10-16T09:38:47;4.90;;;1.67;;
3379;SDS011;1703;51.964;7.642;2022-10-16T09:41:16;2.50;;;1.57;;
3379;SDS011;1703;51.964;7.642;2022-10-16T09:43:49;5.37;;;1.63;;
3379;SDS011;1703;51.964;7.642;2022-10-16T09:46:27;2.77;;;1.00;;
3379;SDS011;1703;51.964;7.642;2022-10-16T09:48:57;5.17;;;1.57;;
3379;SDS011;1703;51.964;7.642;2022-10-16T09:51:26;2.03;;;1.50;;
3379;SDS011;1703;51.964;7.642;2022-10-16T09:53:55;3.03;;;1.50;;
3379;SDS011;1703;51.964;7.642;2022-10-16T09:56:25;3.97;;;1.67;;
3379;SDS011;1703;51.964;7.642;2022-10-16T09:58:53;3.83;;;1.33;;
3379;SDS011;1703;51.964;7.642;2022-10-16T10:01:22;1.80;;;1.70;;
3379;SDS011;1703;51.964;7.642;2022-10-16T10:03:55;2.10;;;1.20;;
3379;SDS011;1703;51.964;7.642;2022-10-16T10:06:27;3.63;;;1.40;;
3379;SDS011;1703;51.964;7.642;2022-10-16T10:09:00;6.80;;;1.27;;
3379;SDS011;1703;51.964;7.642;2022-10-16T10:11:40;4.00;;;1.10;;
3379;SDS011;1703;51.964;7.642;2022-10-16T10:14:23;11.10;;;2.00;;
3379;SDS011;1703;51.964;7.642;2022-10-16T10:17:01;8.07;;;2.13;;
3379;SDS011;1703;51.964;7.642;2022-10-16T10:19:41;6.30;;;2.20;;
3379;SDS011;1703;51.964;7.642;2022-10-16T10:25:15;5.80;;;2.27;;
3379;SDS011;1703;51.964;7.642;2022-10-16T10:31:01;5.47;;;2.23;;
3379;SDS011;1703;51.964;7.642;2022-10-16T10:33:36;5.00;;;2.63;;
3379;SDS011;1703;51.964;7.642;2022-10-16T10:36:12;3.93;;;3.33;;
3379;SDS011;1703;51.964;7.642;2022-10-16T10:38:46;3.03;;;1.87;;
3379;SDS011;1703;51.964;7.642;2022-10-16T10:41:27;2.60;;;1.90;;
3379;SDS011;1703;51.964;7.642;2022-10-16T10:44:30;8.33;;;2.03;;
3379;SDS011;1703;51.964;7.642;2022-10-16T10:47:17;3.47;;;1.70;;
3379;SDS011;1703;51.964;7.642;2022-10-16T10:49:56;2.10;;;1.90;;
3379;SDS011;1703;51.964;7.642;2022-10-16T10:52:37;7.30;;;1.80;;
3379;SDS011;1703;51.964;7.642;2022-10-16T10:55:15;4.90;;;1.20;;
3379;SDS011;1703;51.964;7.642;2022-10-16T10:57:52;10.67;;;2.00;;
3379;SDS011;1703;51.964;7.642;2022-10-16T11:00:34;1.97;;;1.63;;
3379;SDS011;1703;51.964;7.642;2022-10-16T11:03:13;3.97;;;1.30;;
3379;SDS011;1703;51.964;7.642;2022-10-16T11:05:54;4.83;;;1.17;;
3379;SDS011;1703;51.964;7.642;2022-10-16T11:08:27;5.33;;;0.97;;
3379;SDS011;1703;51.964;7.642;2022-10-16T11:10:59;1.10;;;1.00;;
3379;SDS011;1703;51.964;7.642;2022-10-16T11:13:31;3.10;;;0.80;;
3379;SDS011;1703;51.964;7.642;2022-10-16T11:16:03;3.17;;;1.03;;
3379;SDS011;1703;51.964;7.642;2022-10-16T11:18:42;8.13;;;1.37;;
3379;SDS011;1703;51.964;7.642;2022-10-16T11:21:15;1.30;;;0.70;;
3379;SDS011;1703;51.964;7.642;2022-10-16T11:23:48;5.43;;;1.63;;
3379;SDS011;1703;51.964;7.642;2022-10-16T11:26:23;2.50;;;0.87;;
3379;SDS011;1703;51.964;7.642;2022-10-16T11:28:53;5.00;;;0.97;;
3379;SDS011;1703;51.964;7.642;2022-10-16T11:31:25;2.20;;;1.33;;
3379;SDS011;1703;51.964;7.642;2022-10-16T11:34:00;3.33;;;0.90;;
3379;SDS011;1703;51.964;7.642;2022-10-16T11:36:32;4.87;;;1.23;;
3379;SDS011;1703;51.964;7.642;2022-10-16T11:39:07;3.17;;;1.17;;
3379;SDS011;1703;51.964;7.642;2022-10-16T11:41:44;6.00;;;1.07;;
3379;SDS011;1703;51.964;7.642;2022-10-16T11:44:16;3.43;;;0.93;;
3379;SDS011;1703;51.964;7.642;2022-10-16T11:46:52;2.03;;;1.17;;
3379;SDS011;1703;51.964;7.642;2022-10-16T11:49:27;3.73;;;1.00;;
3379;SDS011;1703;51.964;7.642;2022-10-16T11:52:00;3.63;;;1.30;;
3379;SDS011;1703;51.964;7.642;2022-10-16T11:54:44;5.17;;;0.87;;
3379;SDS011;1703;51.964;7.642;2022-10-16T11:57:16;3.20;;;0.93;;
3379;SDS011;1703;51.964;7.642;2022-10-16T11:59:47;2.53;;;1.37;;
3379;SDS011;1703;51.964;7.642;2022-10-16T12:02:25;4.20;;;1.37;;
3379;SDS011;1703;51.964;7.642;2022-10-16T12:05:03;2.73;;;1.37;;
3379;SDS011;1703;51.964;7.642;2022-10-16T12:07:41;6.57;;;1.30;;
3379;SDS011;1703;51.964;7.642;2022-10-16T12:10:20;3.23;;;1.00;;
3379;SDS011;1703;51.964;7.642;2022-10-16T12:12:49;2.77;;;1.30;;
3379;SDS011;1703;51.964;7.642;2022-10-16T12:15:20;4.20;;;1.60;;
3379;SDS011;1703;51.964;7.642;2022-10-16T12:17:49;1.53;;;0.80;;
3379;SDS011;1703;51.964;7.642;2022-10-16T12:20:25;2.90;;;1.00;;
3379;SDS011;1703;51.964;7.642;2022-10-16T12:22:56;5.53;;;1.77;;
3379;SDS011;1703;51.964;7.642;2022-10-16T12:25:26;2.50;;;1.03;;
3379;SDS011;1703;51.964;7.642;2022-10-16T12:27:56;1.97;;;0.90;;
3379;SDS011;1703;51.964;7.642;2022-10-16T12:30:25;2.67;;;0.80;;
3379;SDS011;1703;51.964;7.642;2022-10-16T12:32:53;8.90;;;1.40;;
3379;SDS011;1703;51.964;7.642;2022-10-16T12:35:22;2.77;;;1.30;;
3379;SDS011;1703;51.964;7.642;2022-10-16T12:37:52;2.60;;;1.27;;
3379;SDS011;1703;51.964;7.642;2022-10-16T12:40:27;2.00;;;1.27;;
3379;SDS011;1703;51.964;7.642;2022-10-16T12:42:57;4.43;;;1.13;;
3379;SDS011;1703;51.964;7.642;2022-10-16T12:45:26;5.70;;;1.30;;
3379;SDS011;1703;51.964;7.642;2022-10-16T12:47:56;3.47;;;0.97;;
3379;SDS011;1703;51.964;7.642;2022-10-16T12:50:29;5.90;;;1.20;;
3379;SDS011;1703;51.964;7.642;2022-10-16T12:52:58;2.50;;;1.33;;
3379;SDS011;1703;51.964;7.642;2022-10-16T12:55:30;2.23;;;0.70;;
3379;SDS011;1703;51.964;7.642;2022-10-16T12:58:20;2.60;;;1.67;;
3379;SDS011;1703;51.964;7.642;2022-10-16T13:01:02;3.23;;;0.83;;
3379;SDS011;1703;51.964;7.642;2022-10-16T13:03:42;2.40;;;1.33;;
3379;SDS011;1703;51.964;7.642;2022-10-16T13:06:30;1.87;;;1.20;;
3379;SDS011;1703;51.964;7.642;2022-10-16T13:12:02;1.53;;;0.93;;
3379;SDS011;1703;51.964;7.642;2022-10-16T13:14:47;2.23;;;1.00;;
3379;SDS011;1703;51.964;7.642;2022-10-16T13:17:29;4.30;;;1.37;;
3379;SDS011;1703;51.964;7.642;2022-10-16T13:20:06;1.00;;;0.70;;
3379;SDS011;1703;51.964;7.642;2022-10-16T13:22:45;1.63;;;1.37;;
3379;SDS011;1703;51.964;7.642;2022-10-16T13:25:24;1.73;;;1.13;;
3379;SDS011;1703;51.964;7.642;2022-10-16T13:28:00;1.03;;;0.80;;
3379;SDS011;1703;51.964;7.642;2022-10-16T13:30:28;3.73;;;0.90;;
3379;SDS011;1703;51.964;7.642;2022-10-16T13:32:59;1.23;;;0.87;;
3379;SDS011;1703;51.964;7.642;2022-10-16T13:35:28;2.57;;;0.90;;
3379;SDS011;1703;51.964;7.642;2022-10-16T13:38:04;1.10;;;1.00;;
3379;SDS011;1703;51.964;7.642;2022-10-16T13:40:32;3.60;;;1.33;;
3379;SDS011;1703;51.964;7.642;2022-10-16T13:43:01;4.00;;;1.20;;
3379;SDS011;1703;51.964;7.642;2022-10-16T13:45:28;4.90;;;1.43;;
3379;SDS011;1703;51.964;7.642;2022-10-16T13:48:01;9.17;;;2.20;;
3379;SDS011;1703;51.964;7.642;2022-10-16T13:50:29;6.37;;;0.97;;
3379;SDS011;1703;51.964;7.642;2022-10-16T13:53:03;1.70;;;1.13;;
3379;SDS011;1703;51.964;7.642;2022-10-16T13:55:30;3.70;;;0.93;;
3379;SDS011;1703;51.964;7.642;2022-10-16T13:58:05;4.33;;;1.33;;
3379;SDS011;1703;51.964;7.642;2022-10-16T14:00:34;2.03;;;1.00;;
3379;SDS011;1703;51.964;7.642;2022-10-16T14:03:02;1.37;;;0.87;;
3379;SDS011;1703;51.964;7.642;2022-10-16T14:05:31;3.57;;;1.00;;
3379;SDS011;1703;51.964;7.642;2022-10-16T14:07:58;6.00;;;1.20;;
3379;SDS011;1703;51.964;7.642;2022-10-16T14:10:27;1.20;;;0.80;;
3379;SDS011;1703;51.964;7.642;2022-10-16T14:12:59;6.53;;;0.90;;
3379;SDS011;1703;51.964;7.642;2022-10-16T14:15:30;3.37;;;1.00;;
3379;SDS011;1703;51.964;7.642;2022-10-16T14:17:58;9.43;;;1.57;;
3379;SDS011;1703;51.964;7.642;2022-10-16T14:20:26;2.87;;;1.10;;
3379;SDS011;1703;51.964;7.642;2022-10-16T14:22:59;3.33;;;0.80;;
3379;SDS011;1703;51.964;7.642;2022-10-16T14:25:28;4.67;;;0.80;;
3379;SDS011;1703;51.964;7.642;2022-10-16T14:27:57;1.90;;;1.30;;
3379;SDS011;1703;51.964;7.642;2022-10-16T14:30:26;1.63;;;1.53;;
3379;SDS011;1703;51.964;7.642;2022-10-16T14:32:56;4.23;;;1.20;;
3379;SDS011;1703;51.964;7.642;2022-10-16T14:35:25;3.23;;;1.03;;
3379;SDS011;1703;51.964;7.642;2022-10-16T14:37:54;2.20;;;0.93;;
3379;SDS011;1703;51.964;7.642;2022-10-16T14:40:23;1.30;;;1.20;;
3379;SDS011;1703;51.964;7.642;2022-10-16T14:42:52;2.90;;;1.20;;
3379;SDS011;1703;51.964;7.642;2022-10-16T14:45:20;4.73;;;1.53;;
3379;SDS011;1703;51.964;7.642;2022-10-16T14:47:50;2.77;;;1.00;;
3379;SDS011;1703;51.964;7.642;2022-10-16T14:50:20;5.13;;;3.10;;
3379;SDS011;1703;51.964;7.642;2022-10-16T14:52:47;2.67;;;1.47;;
3379;SDS011;1703;51.964;7.642;2022-10-16T14:55:14;1.90;;;1.17;;
3379;SDS011;1703;51.964;7.642;2022-10-16T14:57:41;2.87;;;1.20;;
3379;SDS011;1703;51.964;7.642;2022-10-16T15:00:13;4.17;;;1.37;;
3379;SDS011;1703;51.964;7.642;2022-10-16T15:02:44;2.93;;;1.50;;
3379;SDS011;1703;51.964;7.642;2022-10-16T15:05:12;3.27;;;1.30;;
3379;SDS011;1703;51.964;7.642;2022-10-16T15:07:43;3.20;;;1.33;;
3379;SDS011;1703;51.964;7.642;2022-10-16T15:10:10;1.67;;;1.00;;
3379;SDS011;1703;51.964;7.642;2022-10-16T15:12:37;1.40;;;1.30;;
3379;SDS011;1703;51.964;7.642;2022-10-16T15:17:53;6.67;;;3.47;;
3379;SDS011;1703;51.964;7.642;2022-10-16T15:20:22;9.00;;;3.23;;
3379;SDS011;1703;51.964;7.642;2022-10-16T15:22:51;3.60;;;2.07;;
3379;SDS011;1703;51.964;7.642;2022-10-16T15:25:26;5.10;;;2.40;;
3379;SDS011;1703;51.964;7.642;2022-10-16T15:27:56;3.33;;;1.90;;
3379;SDS011;1703;51.964;7.642;2022-10-16T15:30:23;2.97;;;1.27;;
3379;SDS011;1703;51.964;7.642;2022-10-16T15:32:49;2.07;;;1.67;;
3379;SDS011;1703;51.964;7.642;2022-10-16T15:35:16;7.47;;;2.10;;
3379;SDS011;1703;51.964;7.642;2022-10-16T15:37:43;8.80;;;2.10;;
3379;SDS011;1703;51.964;7.642;2022-10-16T15:40:13;5.43;;;1.83;;
3379;SDS011;1703;51.964;7.642;2022-10-16T15:42:40;6.50;;;2.07;;
3379;SDS011;1703;51.964;7.642;2022-10-16T15:45:08;9.17;;;1.80;;
3379;SDS011;1703;51.964;7.642;2022-10-16T15:47:36;8.63;;;2.60;;
3379;SDS011;1703;51.964;7.642;2022-10-16T15:50:09;7.27;;;2.70;;